createdAt,value
2022-10-31T00:02:20.393Z,58.71
2022-10-31T00:04:53.024Z,58.67
2022-10-31T00:07:27.935Z,58.85
2022-10-31T00:10:01.703Z,58.71
2022-10-31T00:12:35.295Z,58.62
2022-10-31T00:15:09.276Z,58.99
2022-10-31T00:17:52.184Z,59.31
2022-10-31T00:20:27.019Z,59.26
2022-10-31T00:23:05.048Z,59.22
2022-10-31T00:25:44.205Z,59.02
2022-10-31T00:28:24.179Z,59.48
2022-10-31T00:31:04.078Z,59.08
2022-10-31T00:33:41.028Z,58.75
2022-10-31T00:36:22.371Z,59.13
2022-10-31T00:38:57.689Z,59.08
2022-10-31T00:41:39.945Z,59.25
2022-10-31T00:44:13.525Z,59.17
2022-10-31T00:46:45.812Z,59.37
2022-10-31T00:49:24.046Z,59.44
2022-10-31T00:51:51.380Z,59.08
2022-10-31T00:54:28.541Z,59.18
2022-10-31T00:56:55.953Z,59.21
2022-10-31T00:59:24.779Z,59.76
2022-10-31T01:01:52.296Z,59.35
2022-10-31T01:04:23.372Z,59.75
2022-10-31T01:07:00.037Z,59.80
2022-10-31T01:09:28.490Z,59.65
2022-10-31T01:12:00.354Z,60.31
2022-10-31T01:14:33.524Z,60.82
2022-10-31T01:17:09.228Z,60.30
2022-10-31T01:19:42.168Z,60.29
2022-10-31T01:22:14.878Z,60.37
2022-10-31T01:24:44.691Z,60.26
2022-10-31T01:27:17.059Z,60.42
2022-10-31T01:29:51.268Z,59.94
2022-10-31T01:32:28.052Z,59.90
2022-10-31T01:34:58.320Z,59.93
2022-10-31T01:37:31.253Z,59.54
2022-10-31T01:40:03.655Z,60.02
2022-10-31T01:42:35.570Z,59.51
2022-10-31T01:45:06.644Z,59.33
2022-10-31T01:47:52.724Z,59.18
2022-10-31T01:50:51.694Z,59.39
2022-10-31T01:53:25.978Z,59.43
2022-10-31T01:55:54.635Z,59.40
2022-10-31T01:58:29.081Z,59.46
2022-10-31T02:01:06.685Z,59.58
2022-10-31T02:03:35.488Z,59.14
2022-10-31T02:06:15.380Z,58.87
2022-10-31T02:08:44.944Z,59.29
2022-10-31T02:11:16.120Z,58.85
2022-10-31T02:13:48.758Z,58.99
2022-10-31T02:16:21.052Z,59.07
2022-10-31T02:18:53.260Z,58.58
2022-10-31T02:21:52.152Z,58.74
2022-10-31T02:24:28.422Z,58.99
2022-10-31T02:27:07.248Z,58.86
2022-10-31T02:29:37.610Z,58.51
2022-10-31T02:32:47.346Z,59.04
2022-10-31T02:35:36.361Z,58.91
2022-10-31T02:38:18.501Z,59.51
2022-10-31T02:41:01.443Z,59.48
2022-10-31T02:43:55.242Z,59.60
2022-10-31T02:46:29.325Z,59.17
2022-10-31T02:49:01.768Z,59.15
2022-10-31T02:51:29.518Z,59.30
2022-10-31T02:53:56.568Z,59.12
2022-10-31T02:56:23.803Z,59.22
2022-10-31T02:59:09.050Z,59.37
2022-10-31T03:01:40.383Z,59.19
2022-10-31T03:04:52.971Z,59.40
2022-10-31T03:07:50.934Z,59.33
2022-10-31T03:10:44.808Z,59.51
2022-10-31T03:13:35.911Z,59.38
2022-10-31T03:16:20.700Z,59.83
2022-10-31T03:19:01.061Z,59.67
2022-10-31T03:21:45.498Z,59.90
2022-10-31T03:24:14.896Z,59.47
2022-10-31T03:26:48.046Z,59.54
2022-10-31T03:29:18.381Z,59.32
2022-10-31T03:31:56.214Z,59.27
2022-10-31T03:34:24.616Z,59.16
2022-10-31T03:36:58.602Z,59.22
2022-10-31T03:39:25.974Z,59.25
2022-10-31T03:41:59.244Z,59.60
2022-10-31T03:44:28.049Z,60.04
2022-10-31T03:47:01.120Z,59.17
2022-10-31T03:49:29.779Z,59.82
2022-10-31T03:52:06.672Z,59.40
2022-10-31T03:54:47.986Z,59.76
2022-10-31T03:57:30.915Z,59.64
2022-10-31T04:00:18.955Z,59.86
2022-10-31T04:02:57.201Z,59.36
2022-10-31T04:05:26.838Z,59.55
2022-10-31T04:08:01.964Z,59.89
2022-10-31T04:10:33.153Z,59.89
2022-10-31T04:13:11.720Z,59.96
2022-10-31T04:15:47.031Z,59.63
2022-10-31T04:18:15.996Z,60.13
2022-10-31T04:20:43.431Z,60.34
2022-10-31T04:23:22.275Z,59.87
2022-10-31T04:25:50.567Z,59.96
2022-10-31T04:30:50.458Z,59.68
2022-10-31T04:33:18.158Z,59.87
2022-10-31T04:35:48.576Z,59.26
2022-10-31T04:38:16.768Z,59.64
2022-10-31T04:40:46.407Z,59.18
2022-10-31T04:43:31.755Z,59.21
2022-10-31T04:46:09.495Z,58.77
2022-10-31T04:48:36.907Z,59.03
2022-10-31T04:51:06.822Z,59.04
2022-10-31T04:53:34.336Z,59.35
2022-10-31T04:56:24.596Z,59.23
2022-10-31T04:58:57.315Z,59.34
2022-10-31T05:01:38.512Z,59.27
2022-10-31T05:04:23.467Z,59.22
2022-10-31T05:06:56.227Z,59.26
2022-10-31T05:09:32.495Z,59.28
2022-10-31T05:12:16.416Z,59.15
2022-10-31T05:15:14.817Z,59.12
2022-10-31T05:18:13.638Z,59.14
2022-10-31T05:21:12.643Z,58.87
2022-10-31T05:23:58.305Z,58.68
2022-10-31T05:26:37.088Z,58.76
2022-10-31T05:29:21.276Z,58.66
2022-10-31T05:31:59.548Z,58.91
2022-10-31T05:35:09.882Z,59.22
2022-10-31T05:38:04.587Z,59.01
2022-10-31T05:40:50.368Z,59.10
2022-10-31T05:43:39.122Z,59.05
2022-10-31T05:46:27.212Z,59.69
2022-10-31T05:49:21.734Z,59.18
2022-10-31T05:52:16.031Z,59.07
2022-10-31T05:54:57.016Z,58.64
2022-10-31T05:57:33.657Z,59.23
2022-10-31T06:00:18.762Z,59.13
2022-10-31T06:03:13.068Z,59.12
2022-10-31T06:06:01.615Z,59.45
2022-10-31T06:08:40.343Z,59.48
2022-10-31T06:11:13.771Z,58.93
2022-10-31T06:13:59.822Z,59.00
2022-10-31T06:16:40.443Z,59.22
2022-10-31T06:19:42.609Z,59.04
2022-10-31T06:22:25.990Z,58.50
2022-10-31T06:24:59.852Z,58.40
2022-10-31T06:27:34.471Z,58.64
2022-10-31T06:30:14.429Z,58.33
2022-10-31T06:32:49.169Z,58.28
2022-10-31T06:35:23.595Z,58.07
2022-10-31T06:38:03.987Z,58.15
2022-10-31T06:40:40.108Z,58.54
2022-10-31T06:43:37.230Z,58.68
2022-10-31T06:46:29.120Z,58.79
2022-10-31T06:49:20.592Z,58.51
2022-10-31T06:52:05.735Z,58.66
2022-10-31T06:54:49.314Z,58.27
2022-10-31T06:57:20.169Z,58.20
2022-10-31T06:59:55.365Z,58.22
2022-10-31T07:03:05.037Z,58.13
2022-10-31T07:05:40.143Z,57.61
2022-10-31T07:08:13.592Z,57.99
2022-10-31T07:10:43.192Z,57.39
2022-10-31T07:13:18.397Z,57.66
2022-10-31T07:15:56.449Z,57.19
2022-10-31T07:18:23.986Z,57.04
2022-10-31T07:20:51.157Z,57.17
2022-10-31T07:23:19.362Z,57.17
2022-10-31T07:26:03.118Z,57.24
2022-10-31T07:28:40.427Z,57.14
2022-10-31T07:31:11.170Z,56.99
2022-10-31T07:33:39.657Z,57.04
2022-10-31T07:36:30.184Z,56.89
2022-10-31T07:39:05.620Z,56.90
2022-10-31T07:41:35.674Z,56.94
2022-10-31T07:44:03.394Z,57.46
2022-10-31T07:46:30.901Z,57.13
2022-10-31T07:49:17.664Z,56.83
2022-10-31T07:52:03.666Z,56.61
2022-10-31T07:54:49.185Z,56.64
2022-10-31T07:57:25.920Z,56.37
2022-10-31T07:59:55.452Z,56.13
2022-10-31T08:02:31.413Z,55.73
2022-10-31T08:05:35.181Z,55.36
2022-10-31T08:08:23.565Z,55.18
2022-10-31T08:10:50.967Z,55.38
2022-10-31T08:13:18.971Z,54.89
2022-10-31T08:15:53.288Z,54.74
2022-10-31T08:18:25.437Z,54.47
2022-10-31T08:20:54.908Z,53.96
2022-10-31T08:23:23.108Z,53.78
2022-10-31T08:25:50.627Z,53.61
2022-10-31T08:28:18.455Z,53.22
2022-10-31T08:30:49.682Z,53.14
2022-10-31T08:33:35.211Z,53.37
2022-10-31T08:36:23.888Z,52.98
2022-10-31T08:39:02.020Z,53.00
2022-10-31T08:41:31.556Z,52.49
2022-10-31T08:44:03.360Z,51.98
2022-10-31T08:46:30.930Z,52.21
2022-10-31T08:48:58.786Z,51.94
2022-10-31T08:54:08.154Z,51.49
2022-10-31T08:56:57.516Z,51.21
2022-10-31T08:59:47.707Z,51.04
2022-10-31T09:02:41.594Z,52.06
2022-10-31T09:05:09.446Z,51.71
2022-10-31T09:07:39.767Z,51.91
2022-10-31T09:10:07.537Z,51.34
2022-10-31T09:12:44.938Z,51.18
2022-10-31T09:15:45.160Z,50.95
2022-10-31T09:18:30.695Z,51.07
2022-10-31T09:21:06.513Z,50.98
2022-10-31T09:23:44.582Z,49.20
2022-10-31T09:26:20.099Z,48.96
2022-10-31T09:29:10.883Z,47.91
2022-10-31T09:31:44.793Z,47.83
2022-10-31T09:34:51.329Z,46.38
2022-10-31T09:37:25.222Z,46.26
2022-10-31T09:39:55.584Z,46.30
2022-10-31T09:43:01.578Z,45.74
2022-10-31T09:45:50.349Z,45.47
2022-10-31T09:49:09.645Z,45.39
2022-10-31T09:52:36.983Z,45.06
2022-10-31T09:55:23.921Z,44.86
2022-10-31T09:58:05.930Z,45.01
2022-10-31T10:03:38.489Z,44.50
2022-10-31T10:06:34.417Z,44.66
2022-10-31T10:09:43.085Z,44.72
2022-10-31T10:13:01.156Z,44.11
2022-10-31T10:16:22.846Z,43.74
2022-10-31T10:19:14.709Z,43.19
2022-10-31T10:22:10.462Z,43.14
2022-10-31T10:24:58.188Z,42.23
2022-10-31T10:28:13.606Z,41.74
2022-10-31T10:30:58.588Z,41.48
2022-10-31T10:34:00.938Z,40.65
2022-10-31T10:36:41.401Z,40.43
2022-10-31T10:39:33.742Z,39.88
2022-10-31T10:42:36.488Z,39.93
2022-10-31T10:45:46.678Z,39.37
2022-10-31T10:48:42.484Z,39.59
2022-10-31T10:54:41.318Z,37.03
2022-10-31T10:57:53.941Z,37.12
2022-10-31T11:00:29.081Z,37.20
2022-10-31T11:02:57.421Z,36.80
2022-10-31T11:05:41.296Z,35.89
2022-10-31T11:08:10.669Z,36.26
2022-10-31T11:10:40.799Z,36.75
2022-10-31T11:13:23.798Z,35.80
2022-10-31T11:16:02.532Z,35.73
2022-10-31T11:18:43.250Z,35.81
2022-10-31T11:21:33.990Z,37.95
2022-10-31T11:24:12.833Z,37.21
2022-10-31T11:26:44.490Z,37.77
2022-10-31T11:32:55.459Z,37.19
2022-10-31T11:35:40.519Z,37.97
2022-10-31T11:38:26.385Z,38.25
2022-10-31T11:41:28.127Z,37.27
2022-10-31T11:44:05.384Z,37.21
2022-10-31T11:46:55.209Z,36.07
2022-10-31T11:50:01.574Z,37.33
2022-10-31T11:52:37.527Z,38.01
2022-10-31T11:55:46.729Z,38.66
2022-10-31T11:58:28.743Z,39.29
2022-10-31T12:00:59.161Z,38.45
2022-10-31T12:04:03.626Z,40.16
2022-10-31T12:06:52.745Z,40.17
2022-10-31T12:09:33.665Z,41.36
2022-10-31T12:12:15.196Z,42.92
2022-10-31T12:15:20.782Z,42.81
2022-10-31T12:18:03.797Z,42.53
2022-10-31T12:20:59.421Z,42.09
2022-10-31T12:24:04.679Z,42.29
2022-10-31T12:27:02.853Z,41.21
2022-10-31T12:29:48.219Z,39.67
2022-10-31T12:32:43.905Z,37.89
2022-10-31T12:35:57.334Z,37.51
2022-10-31T12:39:10.140Z,36.77
2022-10-31T12:42:01.731Z,36.71
2022-10-31T12:45:17.792Z,35.73
2022-10-31T12:48:10.481Z,36.32
2022-10-31T12:51:18.972Z,36.60
2022-10-31T12:54:17.994Z,36.51
2022-10-31T12:57:10.467Z,37.83
2022-10-31T12:59:54.141Z,38.01
2022-10-31T13:02:55.048Z,38.54
2022-10-31T13:05:37.752Z,39.66
2022-10-31T13:08:11.821Z,40.67
2022-10-31T13:13:47.664Z,41.09
2022-10-31T13:19:52.281Z,42.98
2022-10-31T13:22:31.264Z,41.92
2022-10-31T13:25:32.078Z,41.48
2022-10-31T13:28:46.024Z,41.24
2022-10-31T13:31:16.383Z,41.93
2022-10-31T13:33:52.375Z,42.09
2022-10-31T13:36:36.153Z,43.07
2022-10-31T13:39:27.655Z,43.78
2022-10-31T13:42:37.917Z,45.04
2022-10-31T13:45:34.235Z,45.50
2022-10-31T13:48:44.452Z,44.86
2022-10-31T13:51:19.078Z,47.10
2022-10-31T13:54:04.161Z,47.25
2022-10-31T13:56:41.880Z,47.45
2022-10-31T13:59:40.898Z,46.35
2022-10-31T14:02:33.738Z,46.81
2022-10-31T14:05:44.959Z,48.51
2022-10-31T14:08:34.887Z,47.98
2022-10-31T14:11:37.304Z,48.35
2022-10-31T14:14:15.294Z,48.00
2022-10-31T14:17:03.490Z,49.40
2022-10-31T14:19:34.480Z,48.69
2022-10-31T14:22:20.872Z,48.49
2022-10-31T14:25:03.343Z,49.02
2022-10-31T14:27:38.329Z,49.70
2022-10-31T14:30:35.041Z,50.44
2022-10-31T14:33:25.886Z,50.10
2022-10-31T14:36:11.402Z,51.13
2022-10-31T14:39:11.978Z,50.04
2022-10-31T14:42:19.471Z,49.87
2022-10-31T14:45:15.460Z,49.82
2022-10-31T14:48:27.464Z,49.03
2022-10-31T14:50:59.147Z,49.47
2022-10-31T14:53:30.602Z,49.71
2022-10-31T14:56:07.167Z,48.90
2022-10-31T14:58:51.388Z,49.73
2022-10-31T15:01:53.734Z,50.19
2022-10-31T15:04:34.007Z,49.77
2022-10-31T15:07:24.841Z,51.00
2022-10-31T15:10:08.175Z,51.48
2022-10-31T15:12:44.840Z,51.11
2022-10-31T15:15:27.654Z,52.40
2022-10-31T15:18:08.347Z,52.53
2022-10-31T15:20:52.004Z,52.67
2022-10-31T15:23:56.795Z,53.44
2022-10-31T15:26:36.616Z,53.55
2022-10-31T15:29:07.131Z,53.08
2022-10-31T15:31:34.757Z,53.77
2022-10-31T15:34:21.623Z,53.88
2022-10-31T15:36:52.497Z,53.17
2022-10-31T15:39:23.132Z,53.35
2022-10-31T15:42:03.508Z,54.06
2022-10-31T15:44:40.147Z,54.01
2022-10-31T15:47:28.945Z,54.84
2022-10-31T15:50:16.930Z,55.38
2022-10-31T15:52:55.864Z,54.81
2022-10-31T15:55:34.711Z,54.99
2022-10-31T15:58:21.353Z,55.82
2022-10-31T16:01:29.749Z,55.81
2022-10-31T16:04:36.902Z,55.70
2022-10-31T16:07:26.925Z,56.08
2022-10-31T16:10:05.777Z,56.67
2022-10-31T16:12:47.460Z,56.52
2022-10-31T16:15:36.679Z,56.93
2022-10-31T16:18:18.773Z,57.01
2022-10-31T16:21:05.949Z,56.90
2022-10-31T16:24:02.729Z,57.33
2022-10-31T16:26:40.563Z,57.21
2022-10-31T16:29:44.193Z,57.24
2022-10-31T16:32:56.859Z,57.27
2022-10-31T16:35:40.749Z,58.67
2022-10-31T16:38:38.978Z,59.24
2022-10-31T16:41:41.187Z,58.68
2022-10-31T16:44:55.673Z,59.63
2022-10-31T16:50:52.673Z,59.16
2022-10-31T16:57:05.512Z,59.30
2022-10-31T16:59:53.587Z,59.45
2022-10-31T17:02:41.449Z,59.71
2022-10-31T17:05:45.076Z,60.16
2022-10-31T17:08:38.099Z,60.00
2022-10-31T17:11:17.828Z,59.93
2022-10-31T17:14:32.773Z,59.95
2022-10-31T17:17:20.849Z,59.72
2022-10-31T17:20:01.546Z,59.25
2022-10-31T17:22:40.977Z,59.57
2022-10-31T17:25:51.135Z,60.28
2022-10-31T17:28:46.227Z,60.58
2022-10-31T17:31:59.451Z,60.43
2022-10-31T17:34:39.092Z,60.43
2022-10-31T17:37:21.090Z,60.70
2022-10-31T17:40:15.807Z,61.02
2022-10-31T17:46:18.611Z,61.17
2022-10-31T17:49:01.628Z,61.81
2022-10-31T17:51:40.384Z,61.30
2022-10-31T17:54:13.759Z,62.18
2022-10-31T17:56:48.533Z,62.09
2022-10-31T17:59:30.778Z,62.18
2022-10-31T18:02:34.496Z,61.88
2022-10-31T18:05:11.176Z,60.80
2022-10-31T18:07:49.419Z,60.91
2022-10-31T18:10:43.218Z,61.17
2022-10-31T18:13:25.989Z,61.19
2022-10-31T18:15:58.282Z,60.98
2022-10-31T18:18:35.271Z,61.95
2022-10-31T18:21:13.094Z,61.60
2022-10-31T18:24:04.178Z,61.55
2022-10-31T18:27:05.164Z,62.18
2022-10-31T18:29:41.428Z,61.72
2022-10-31T18:32:17.200Z,61.74
2022-10-31T18:34:48.559Z,62.09
2022-10-31T18:37:32.739Z,61.76
2022-10-31T18:40:06.302Z,61.46
2022-10-31T18:42:45.629Z,61.36
2022-10-31T18:45:32.460Z,61.74
2022-10-31T18:48:14.663Z,61.53
2022-10-31T18:50:53.890Z,62.31
2022-10-31T18:53:40.678Z,61.30
2022-10-31T18:56:25.115Z,61.43
2022-10-31T18:59:17.671Z,61.97
2022-10-31T19:01:49.757Z,60.95
2022-10-31T19:04:38.647Z,60.80
2022-10-31T19:07:28.252Z,60.75
2022-10-31T19:10:30.764Z,61.40
2022-10-31T19:13:16.395Z,60.85
2022-10-31T19:15:55.827Z,60.91
2022-10-31T19:18:32.067Z,60.55
2022-10-31T19:21:08.154Z,60.52
2022-10-31T19:26:35.256Z,60.04
2022-10-31T19:29:13.379Z,59.91
2022-10-31T19:31:52.628Z,59.56
2022-10-31T19:34:30.928Z,58.46
2022-10-31T19:37:03.317Z,58.43
2022-10-31T19:39:34.447Z,57.86
2022-10-31T19:42:13.363Z,57.92
2022-10-31T19:44:43.831Z,57.75
2022-10-31T19:47:16.790Z,57.87
2022-10-31T19:49:50.547Z,57.73
2022-10-31T19:52:27.726Z,58.11
2022-10-31T19:54:56.308Z,58.32
2022-10-31T20:00:49.866Z,58.44
2022-10-31T20:03:32.222Z,58.55
2022-10-31T20:06:09.199Z,58.42
2022-10-31T20:08:39.647Z,58.36
2022-10-31T20:11:16.513Z,57.87
2022-10-31T20:13:56.719Z,58.03
2022-10-31T20:16:35.782Z,58.08
2022-10-31T20:19:15.439Z,57.67
2022-10-31T20:21:52.289Z,57.97
2022-10-31T20:24:25.663Z,57.80
2022-10-31T20:27:07.410Z,57.95
2022-10-31T20:29:46.946Z,58.58
2022-10-31T20:35:15.605Z,58.19
2022-10-31T20:37:48.881Z,58.63
2022-10-31T20:40:27.096Z,58.27
2022-10-31T20:43:09.700Z,58.04
2022-10-31T20:46:00.046Z,57.37
2022-10-31T20:48:31.318Z,58.28
2022-10-31T20:51:09.371Z,57.78
2022-10-31T20:53:53.443Z,58.20
2022-10-31T20:59:28.039Z,58.14
2022-10-31T21:01:58.686Z,58.65
2022-10-31T21:05:17.898Z,58.26
2022-10-31T21:07:52.150Z,59.46
2022-10-31T21:10:26.928Z,59.16
2022-10-31T21:12:57.455Z,59.89
2022-10-31T21:15:28.088Z,59.33
2022-10-31T21:17:58.253Z,58.54
2022-10-31T21:20:29.008Z,59.46
2022-10-31T21:23:02.033Z,58.97
2022-10-31T21:25:29.791Z,58.92
2022-10-31T21:28:00.223Z,58.49
2022-10-31T21:30:36.424Z,59.18
2022-10-31T21:33:13.975Z,59.43
2022-10-31T21:35:55.523Z,59.80
2022-10-31T21:38:29.513Z,61.04
2022-10-31T21:41:24.362Z,60.00
2022-10-31T21:44:02.481Z,60.29
2022-10-31T21:46:52.169Z,60.01
2022-10-31T21:49:35.422Z,59.34
2022-10-31T21:52:19.719Z,59.39
2022-10-31T21:55:09.431Z,60.24
2022-10-31T21:58:00.109Z,60.53
2022-10-31T22:00:51.546Z,59.61
2022-10-31T22:07:13.279Z,60.05
2022-10-31T22:09:58.606Z,59.54
2022-10-31T22:13:02.970Z,59.46
2022-10-31T22:15:55.835Z,59.08
2022-10-31T22:18:32.625Z,58.83
2022-10-31T22:21:33.387Z,58.75
2022-10-31T22:24:50.263Z,58.40
2022-10-31T22:27:38.718Z,58.48
2022-10-31T22:30:20.728Z,58.14
2022-10-31T22:33:15.512Z,57.51
2022-10-31T22:40:01.011Z,57.40
2022-10-31T22:42:41.159Z,57.22
2022-10-31T22:45:20.009Z,57.29
2022-10-31T22:48:08.005Z,56.60
2022-10-31T22:50:58.097Z,56.45
2022-10-31T22:53:31.788Z,56.71
2022-10-31T22:56:16.510Z,57.26
2022-10-31T22:58:46.467Z,57.53
2022-10-31T23:01:30.457Z,57.66
2022-10-31T23:04:08.941Z,56.77
2022-10-31T23:06:41.468Z,57.44
2022-10-31T23:09:19.605Z,56.96
2022-10-31T23:11:51.711Z,57.49
2022-10-31T23:14:21.796Z,57.57
2022-10-31T23:17:03.510Z,56.76
2022-10-31T23:19:35.105Z,57.22
2022-10-31T23:22:04.846Z,57.14
2022-10-31T23:24:43.092Z,57.52
2022-10-31T23:27:27.563Z,57.16
2022-10-31T23:29:59.638Z,57.58
2022-10-31T23:32:33.052Z,56.96
2022-10-31T23:35:02.997Z,57.95
2022-10-31T23:37:33.454Z,57.40
2022-10-31T23:40:08.084Z,57.57
2022-10-31T23:42:38.771Z,57.00
2022-10-31T23:45:06.614Z,56.75
2022-10-31T23:47:38.336Z,57.12
2022-10-31T23:50:11.809Z,56.88
2022-10-31T23:52:42.879Z,57.68
2022-10-31T23:55:13.937Z,57.97
2022-10-31T23:57:49.666Z,57.91
